createdAt,value
2019-03-29T00:01:08.177Z,96.80
2019-03-29T00:03:34.313Z,96.66
2019-03-29T00:06:00.964Z,96.48
2019-03-29T00:08:26.976Z,96.46
2019-03-29T00:10:52.989Z,96.33
2019-03-29T00:13:19.013Z,96.23
2019-03-29T00:15:45.004Z,96.64
2019-03-29T00:18:11.017Z,96.95
2019-03-29T00:20:37.020Z,96.98
2019-03-29T00:23:03.013Z,96.94
2019-03-29T00:25:29.087Z,96.81
2019-03-29T00:27:55.084Z,96.88
2019-03-29T00:30:21.411Z,97.02
2019-03-29T00:32:48.210Z,97.23
2019-03-29T00:35:14.253Z,97.52
2019-03-29T00:37:52.952Z,97.50
2019-03-29T00:40:08.259Z,97.27
2019-03-29T00:42:34.374Z,97.14
2019-03-29T00:45:00.442Z,96.97
2019-03-29T00:47:26.514Z,96.73
2019-03-29T00:49:52.592Z,96.72
2019-03-29T00:52:18.629Z,96.72
2019-03-29T00:54:44.746Z,96.96
2019-03-29T00:57:10.787Z,96.85
2019-03-29T00:59:36.778Z,96.67
2019-03-29T01:02:02.790Z,96.87
2019-03-29T01:04:29.110Z,96.88
2019-03-29T01:06:55.347Z,96.67
2019-03-29T01:09:21.361Z,96.50
2019-03-29T01:11:47.361Z,96.80
2019-03-29T01:14:13.359Z,96.99
2019-03-29T01:16:39.486Z,97.16
2019-03-29T01:19:05.467Z,97.42
2019-03-29T01:21:31.486Z,97.25
2019-03-29T01:23:57.566Z,97.15
2019-03-29T01:26:23.707Z,97.39
2019-03-29T01:28:49.901Z,97.71
2019-03-29T01:31:16.007Z,97.54
2019-03-29T01:33:42.000Z,97.27
2019-03-29T01:36:08.035Z,96.50
2019-03-29T01:38:34.135Z,96.63
2019-03-29T01:41:01.001Z,96.99
2019-03-29T01:43:27.128Z,97.23
2019-03-29T01:45:53.116Z,97.40
2019-03-29T01:48:19.404Z,97.62
2019-03-29T01:50:45.394Z,97.35
2019-03-29T01:53:12.042Z,97.17
2019-03-29T01:55:40.211Z,97.06
2019-03-29T01:58:06.226Z,97.10
2019-03-29T02:00:33.136Z,96.90
2019-03-29T02:02:59.455Z,96.80
2019-03-29T02:05:25.444Z,96.45
2019-03-29T02:07:51.422Z,96.13
2019-03-29T02:10:17.427Z,96.38
2019-03-29T02:12:43.418Z,96.70
2019-03-29T02:15:09.624Z,96.64
2019-03-29T02:17:36.115Z,96.29
2019-03-29T02:20:05.184Z,95.99
2019-03-29T02:22:31.200Z,95.98
2019-03-29T02:24:57.309Z,95.67
2019-03-29T02:27:23.296Z,95.59
2019-03-29T02:29:49.334Z,95.48
2019-03-29T02:32:15.376Z,95.29
2019-03-29T02:34:43.543Z,95.67
2019-03-29T02:37:09.369Z,95.78
2019-03-29T02:39:35.454Z,95.94
2019-03-29T02:42:01.480Z,96.23
2019-03-29T02:44:27.611Z,95.98
2019-03-29T02:46:54.202Z,95.60
2019-03-29T02:49:20.573Z,95.43
2019-03-29T02:51:48.506Z,95.28
2019-03-29T02:54:14.590Z,95.17
2019-03-29T02:56:40.620Z,94.96
2019-03-29T02:59:06.628Z,95.13
2019-03-29T03:01:32.676Z,95.25
2019-03-29T03:03:58.686Z,95.73
2019-03-29T03:06:24.676Z,95.42
2019-03-29T03:08:50.661Z,95.56
2019-03-29T03:11:16.682Z,95.51
2019-03-29T03:13:42.734Z,95.16
2019-03-29T03:16:08.747Z,95.31
2019-03-29T03:18:34.747Z,95.36
2019-03-29T03:21:00.733Z,95.57
2019-03-29T03:23:26.836Z,95.29
2019-03-29T03:25:52.928Z,95.60
2019-03-29T03:28:19.020Z,95.86
2019-03-29T03:30:45.030Z,95.79
2019-03-29T03:33:11.263Z,95.46
2019-03-29T03:35:37.325Z,95.05
2019-03-29T03:38:03.469Z,95.00
2019-03-29T03:40:29.685Z,95.26
2019-03-29T03:42:55.688Z,94.87
2019-03-29T03:45:21.669Z,94.65
2019-03-29T03:47:47.672Z,94.61
2019-03-29T03:50:29.744Z,95.05
2019-03-29T03:52:55.773Z,94.92
2019-03-29T03:55:22.289Z,94.46
2019-03-29T03:57:48.626Z,94.60
2019-03-29T04:00:18.436Z,94.65
2019-03-29T04:02:44.421Z,94.27
2019-03-29T04:05:10.429Z,94.61
2019-03-29T04:07:36.437Z,94.35
2019-03-29T04:10:05.258Z,94.45
2019-03-29T04:12:31.248Z,94.60
2019-03-29T04:14:57.282Z,94.85
2019-03-29T04:17:23.315Z,94.25
2019-03-29T04:19:49.319Z,94.57
2019-03-29T04:22:15.309Z,94.29
2019-03-29T04:24:41.323Z,94.49
2019-03-29T04:27:07.312Z,94.09
2019-03-29T04:29:33.339Z,94.17
2019-03-29T04:31:59.336Z,94.52
2019-03-29T04:34:25.470Z,94.85
2019-03-29T04:36:51.500Z,94.80
2019-03-29T04:39:17.480Z,94.51
2019-03-29T04:41:43.487Z,94.05
2019-03-29T04:44:09.579Z,93.94
2019-03-29T04:46:35.604Z,93.16
2019-03-29T04:49:01.708Z,93.86
2019-03-29T04:51:27.895Z,94.11
2019-03-29T04:53:53.943Z,93.61
2019-03-29T04:56:19.969Z,93.31
2019-03-29T04:58:45.991Z,93.96
2019-03-29T05:01:11.972Z,94.12
2019-03-29T05:03:37.999Z,94.12
2019-03-29T05:06:04.019Z,94.36
2019-03-29T05:08:30.167Z,94.04
2019-03-29T05:10:56.298Z,94.12
2019-03-29T05:13:22.310Z,93.90
2019-03-29T05:15:48.305Z,93.96
2019-03-29T05:18:14.389Z,94.23
2019-03-29T05:20:40.383Z,94.28
2019-03-29T05:23:06.358Z,93.90
2019-03-29T05:25:32.410Z,93.67
2019-03-29T05:27:58.428Z,92.91
2019-03-29T05:30:24.426Z,92.68
2019-03-29T05:32:50.728Z,92.74
2019-03-29T05:35:16.779Z,92.95
2019-03-29T05:37:42.775Z,92.92
2019-03-29T05:40:09.016Z,93.09
2019-03-29T05:42:35.114Z,92.55
2019-03-29T05:45:01.126Z,92.36
2019-03-29T05:47:27.127Z,92.31
2019-03-29T05:49:53.119Z,92.55
2019-03-29T05:52:19.236Z,92.38
2019-03-29T05:54:45.261Z,92.07
2019-03-29T05:57:11.260Z,92.19
2019-03-29T05:59:37.238Z,91.80
2019-03-29T06:02:03.271Z,91.90
2019-03-29T06:04:29.356Z,91.31
2019-03-29T06:06:55.388Z,91.13
2019-03-29T06:09:21.384Z,91.10
2019-03-29T06:11:47.402Z,91.00
2019-03-29T06:14:13.411Z,91.21
2019-03-29T06:16:39.600Z,91.07
2019-03-29T06:19:05.702Z,90.73
2019-03-29T06:21:31.685Z,90.59
2019-03-29T06:23:57.726Z,90.42
2019-03-29T06:26:25.208Z,90.18
2019-03-29T06:28:51.217Z,90.07
2019-03-29T06:31:17.265Z,89.84
2019-03-29T06:33:44.710Z,90.23
2019-03-29T06:36:13.918Z,90.20
2019-03-29T06:38:41.262Z,90.27
2019-03-29T06:41:07.274Z,90.68
2019-03-29T06:43:33.279Z,90.58
2019-03-29T06:45:59.305Z,90.78
2019-03-29T06:48:25.317Z,90.14
2019-03-29T06:50:51.638Z,89.91
2019-03-29T06:53:17.804Z,89.95
2019-03-29T06:55:43.802Z,90.01
2019-03-29T06:58:09.777Z,89.33
2019-03-29T07:00:35.773Z,89.04
2019-03-29T07:03:01.923Z,88.74
2019-03-29T07:05:28.043Z,88.27
2019-03-29T07:07:54.170Z,88.50
2019-03-29T07:10:20.155Z,88.37
2019-03-29T07:12:46.249Z,88.94
2019-03-29T07:15:12.332Z,88.20
2019-03-29T07:17:38.563Z,88.01
2019-03-29T07:20:05.574Z,88.04
2019-03-29T07:22:34.519Z,87.85
2019-03-29T07:24:59.491Z,87.30
2019-03-29T07:27:25.523Z,87.02
2019-03-29T07:29:51.507Z,86.30
2019-03-29T07:32:17.574Z,86.66
2019-03-29T07:34:43.604Z,86.56
2019-03-29T07:37:09.706Z,86.76
2019-03-29T07:39:35.720Z,87.07
2019-03-29T07:42:01.752Z,86.24
2019-03-29T07:44:27.799Z,86.43
2019-03-29T07:46:53.837Z,85.68
2019-03-29T08:16:13.230Z,86.87
2019-03-29T08:18:39.310Z,86.66
2019-03-29T08:21:05.303Z,86.33
2019-03-29T08:23:31.308Z,86.46
2019-03-29T11:35:58.399Z,73.56
2019-03-29T11:46:22.861Z,71.40
2019-03-29T12:14:29.450Z,69.95
2019-03-29T12:47:24.298Z,68.93
2019-03-29T12:50:30.491Z,68.96
2019-03-29T12:52:56.767Z,69.53
2019-03-29T13:08:15.766Z,67.35
2019-03-29T13:10:54.941Z,67.22
2019-03-29T13:13:35.728Z,67.09
2019-03-29T13:26:02.384Z,66.50
2019-03-29T13:29:01.699Z,65.73
2019-03-29T13:34:52.009Z,65.77
2019-03-29T13:37:18.092Z,65.45
2019-03-29T13:40:23.861Z,65.41
2019-03-29T13:43:03.206Z,64.90
2019-03-29T13:45:42.344Z,64.38
2019-03-29T13:48:22.338Z,64.85
2019-03-29T13:51:02.399Z,64.39
2019-03-29T13:53:43.226Z,64.53
2019-03-29T13:59:22.457Z,64.15
2019-03-29T14:05:17.323Z,63.45
2019-03-29T14:07:58.162Z,63.44
2019-03-29T14:10:24.184Z,63.61
2019-03-29T14:12:50.139Z,62.46
2019-03-29T14:15:48.928Z,62.72
2019-03-29T14:25:13.814Z,61.94
2019-03-29T14:30:50.564Z,63.07
2019-03-29T14:33:55.157Z,61.26
2019-03-29T14:36:54.922Z,61.38
2019-03-29T14:39:33.936Z,60.42
2019-03-29T14:42:34.106Z,59.22
2019-03-29T14:45:33.342Z,60.52
2019-03-29T14:47:59.455Z,58.66
2019-03-29T14:50:45.489Z,59.53
2019-03-29T14:53:11.685Z,59.28
2019-03-29T14:55:57.560Z,59.77
2019-03-29T14:58:36.730Z,59.30
2019-03-29T15:14:14.118Z,61.58
2019-03-29T15:16:53.526Z,61.97
2019-03-29T15:22:41.737Z,62.67
2019-03-29T15:25:20.705Z,62.90
2019-03-29T15:27:46.755Z,63.36
2019-03-29T15:30:32.706Z,62.87
2019-03-29T15:33:11.776Z,63.41
2019-03-29T15:48:35.232Z,63.92
2019-03-29T15:51:01.310Z,64.53
2019-03-29T15:53:27.291Z,64.44
2019-03-29T15:55:53.320Z,64.91
2019-03-29T15:58:19.306Z,64.93
2019-03-29T16:00:45.340Z,65.32
2019-03-29T16:03:11.334Z,65.84
2019-03-29T16:05:37.299Z,66.05
2019-03-29T16:08:03.320Z,65.61
2019-03-29T16:10:29.295Z,66.03
2019-03-29T16:12:55.311Z,65.63
2019-03-29T16:15:33.915Z,65.80
2019-03-29T16:17:49.257Z,65.96
2019-03-29T16:20:15.563Z,65.93
2019-03-29T16:22:41.886Z,65.79
2019-03-29T16:25:07.955Z,65.96
2019-03-29T16:27:33.928Z,66.01
2019-03-29T16:29:59.931Z,66.57
2019-03-29T16:32:25.939Z,66.35
2019-03-29T16:34:52.605Z,67.11
2019-03-29T16:37:18.584Z,67.36
2019-03-29T16:39:44.603Z,67.55
2019-03-29T16:42:10.607Z,67.60
2019-03-29T16:44:36.575Z,67.92
2019-03-29T16:47:02.683Z,67.86
2019-03-29T16:49:28.668Z,68.15
2019-03-29T16:51:54.702Z,68.25
2019-03-29T16:54:20.819Z,68.18
2019-03-29T16:56:46.805Z,68.05
2019-03-29T16:59:12.827Z,68.36
2019-03-29T17:01:38.859Z,68.17
2019-03-29T17:04:04.979Z,68.64
2019-03-29T17:06:30.952Z,68.73
2019-03-29T17:08:56.986Z,72.49
2019-03-29T17:11:22.999Z,69.60
2019-03-29T17:13:49.118Z,69.63
2019-03-29T17:16:15.198Z,69.86
2019-03-29T17:18:41.218Z,69.63
2019-03-29T17:21:07.240Z,69.78
2019-03-29T17:23:33.436Z,69.87
2019-03-29T17:25:59.432Z,69.59
2019-03-29T17:28:25.429Z,69.71
2019-03-29T17:30:53.345Z,69.49
2019-03-29T17:33:22.302Z,69.30
2019-03-29T17:35:47.359Z,69.50
2019-03-29T17:38:13.393Z,69.29
2019-03-29T17:40:39.570Z,69.66
2019-03-29T17:43:05.605Z,69.79
2019-03-29T17:45:31.640Z,69.73
2019-03-29T17:47:57.643Z,69.46
2019-03-29T17:50:25.331Z,69.81
2019-03-29T17:52:51.843Z,69.53
2019-03-29T17:55:17.828Z,69.98
2019-03-29T17:57:43.981Z,69.95
2019-03-29T18:00:11.852Z,70.15
2019-03-29T18:02:37.864Z,70.18
2019-03-29T18:05:05.389Z,70.41
2019-03-29T18:07:31.495Z,70.27
2019-03-29T18:09:57.473Z,70.15
2019-03-29T18:12:23.673Z,70.08
2019-03-29T18:14:49.819Z,70.58
2019-03-29T18:17:16.010Z,71.67
2019-03-29T18:19:42.017Z,71.96
2019-03-29T18:22:08.060Z,71.88
2019-03-29T18:24:34.082Z,72.11
2019-03-29T18:27:00.096Z,72.64
2019-03-29T18:29:26.199Z,73.20
2019-03-29T18:31:52.408Z,74.14
2019-03-29T18:34:18.508Z,74.01
2019-03-29T18:36:45.623Z,74.97
2019-03-29T18:39:11.644Z,75.04
2019-03-29T18:41:37.625Z,75.33
2019-03-29T18:44:03.702Z,75.55
2019-03-29T18:46:43.696Z,74.91
2019-03-29T18:48:57.695Z,75.24
2019-03-29T18:51:23.684Z,75.97
2019-03-29T18:53:49.725Z,75.97
2019-03-29T18:56:15.743Z,76.08
2019-03-29T18:58:41.824Z,75.84
2019-03-29T19:01:08.084Z,75.87
2019-03-29T19:03:34.316Z,75.94
2019-03-29T19:06:00.354Z,75.78
2019-03-29T19:08:26.332Z,75.91
2019-03-29T19:10:52.414Z,76.18
2019-03-29T19:13:18.778Z,76.24
2019-03-29T19:15:44.813Z,76.37
2019-03-29T19:18:10.981Z,76.49
2019-03-29T19:20:37.060Z,76.65
2019-03-29T19:23:03.072Z,76.30
2019-03-29T19:25:29.205Z,76.47
2019-03-29T19:27:55.577Z,76.90
2019-03-29T19:30:21.892Z,77.23
2019-03-29T19:32:48.425Z,77.34
2019-03-29T19:35:14.526Z,76.94
2019-03-29T19:37:40.625Z,77.38
2019-03-29T19:40:06.740Z,77.49
2019-03-29T19:42:33.068Z,77.69
2019-03-29T19:44:59.428Z,78.32
2019-03-29T19:47:25.662Z,78.53
2019-03-29T19:49:55.114Z,78.27
2019-03-29T19:52:24.884Z,78.03
2019-03-29T19:54:49.503Z,78.21
2019-03-29T19:57:15.648Z,78.15
2019-03-29T19:59:41.767Z,78.14
2019-03-29T20:02:07.796Z,78.64
2019-03-29T20:04:33.843Z,79.36
2019-03-29T20:06:59.896Z,79.25
2019-03-29T20:09:25.879Z,79.59
2019-03-29T20:11:51.921Z,80.28
2019-03-29T20:14:17.944Z,80.54
2019-03-29T20:16:43.982Z,80.17
2019-03-29T20:19:10.105Z,80.76
2019-03-29T20:21:36.128Z,81.22
2019-03-29T20:24:02.113Z,81.47
2019-03-29T20:26:28.202Z,81.92
2019-03-29T20:28:54.249Z,83.38
2019-03-29T20:31:20.248Z,83.18
2019-03-29T20:33:46.285Z,83.65
2019-03-29T20:36:12.278Z,82.59
2019-03-29T20:38:38.291Z,83.11
2019-03-29T20:41:04.447Z,84.42
2019-03-29T20:43:30.500Z,84.86
2019-03-29T20:45:56.462Z,84.48
2019-03-29T20:48:22.517Z,84.18
2019-03-29T20:50:48.573Z,84.37
2019-03-29T20:53:14.588Z,84.46
2019-03-29T20:55:40.668Z,84.54
2019-03-29T20:58:07.042Z,83.98
2019-03-29T21:00:33.171Z,84.17
2019-03-29T21:02:59.535Z,83.85
2019-03-29T21:05:26.098Z,84.10
2019-03-29T21:07:54.857Z,84.64
2019-03-29T21:10:20.279Z,85.66
2019-03-29T21:12:48.466Z,85.49
2019-03-29T21:15:15.655Z,84.93
2019-03-29T21:17:55.599Z,85.16
2019-03-29T21:20:10.708Z,85.67
2019-03-29T21:22:37.286Z,85.75
2019-03-29T21:25:05.374Z,85.46
2019-03-29T21:27:31.465Z,85.18
2019-03-29T21:29:57.537Z,84.95
2019-03-29T21:32:23.549Z,84.81
2019-03-29T21:34:49.623Z,84.37
2019-03-29T21:37:15.817Z,84.18
2019-03-29T21:39:41.926Z,84.73
2019-03-29T21:42:07.996Z,84.33
2019-03-29T21:44:34.331Z,84.44
2019-03-29T21:47:00.436Z,85.95
2019-03-29T21:49:26.588Z,85.97
2019-03-29T21:51:52.612Z,85.03
2019-03-29T21:54:18.689Z,85.57
2019-03-29T21:56:44.703Z,85.85
2019-03-29T21:59:10.748Z,85.20
2019-03-29T22:01:36.983Z,85.90
2019-03-29T22:04:03.112Z,86.49
2019-03-29T22:06:29.151Z,87.52
2019-03-29T22:08:55.128Z,88.14
2019-03-29T22:11:21.742Z,88.14
2019-03-29T22:13:47.811Z,88.13
2019-03-29T22:16:13.863Z,88.14
2019-03-29T22:18:39.936Z,88.26
2019-03-29T22:21:06.142Z,88.00
2019-03-29T22:23:32.148Z,86.69
2019-03-29T22:25:58.128Z,86.42
2019-03-29T22:28:24.130Z,86.15
2019-03-29T22:30:50.112Z,86.46
2019-03-29T22:33:16.152Z,86.61
2019-03-29T22:35:42.143Z,86.69
2019-03-29T22:38:08.135Z,86.65
2019-03-29T22:40:34.169Z,87.94
2019-03-29T22:43:00.185Z,88.84
2019-03-29T22:45:26.185Z,89.01
2019-03-29T22:47:52.172Z,88.72
2019-03-29T22:50:18.157Z,88.72
2019-03-29T22:52:44.207Z,89.24
2019-03-29T22:55:10.211Z,89.20
2019-03-29T22:57:36.198Z,89.37
2019-03-29T23:00:15.025Z,89.57
2019-03-29T23:02:41.274Z,89.69
2019-03-29T23:05:07.577Z,89.77
2019-03-29T23:07:33.559Z,89.71
2019-03-29T23:09:59.571Z,90.19
2019-03-29T23:12:25.571Z,90.20
2019-03-29T23:14:51.652Z,90.15
2019-03-29T23:17:17.667Z,89.91
2019-03-29T23:19:43.636Z,90.29
2019-03-29T23:22:10.816Z,90.29
2019-03-29T23:24:36.807Z,90.97
2019-03-29T23:27:02.801Z,91.07
2019-03-29T23:29:28.767Z,91.02
2019-03-29T23:31:54.790Z,90.37
2019-03-29T23:34:20.910Z,89.91
2019-03-29T23:36:47.182Z,91.25
2019-03-29T23:39:13.217Z,91.61
2019-03-29T23:41:39.248Z,91.82
2019-03-29T23:44:05.241Z,92.09
2019-03-29T23:46:31.231Z,91.74
2019-03-29T23:48:57.268Z,91.45
2019-03-29T23:51:23.238Z,91.59
2019-03-29T23:53:49.236Z,90.96
2019-03-29T23:56:15.225Z,90.11
2019-03-29T23:58:41.994Z,89.41
